Time;durP1;ratioP1;P1;durP2;ratioP2;P2;SDS_P1;SDS_P2;PMS_P1;PMS_P2;Temp;Humidity;BMP_temperature;BMP_pressure;BME280_temperature;BME280_humidity;BME280_pressure;Samples;Min_cycle;Max_cycle;Signal;HPM_P1;HPM_P2
2024/01/06 00:01:24;;;;;;;16.77;14.85;;;15.40;99.90;;;;;;4995096;28;20497;-89
2024/01/06 00:03:50;;;;;;;23.02;16.13;;;15.40;99.90;;;;;;4978625;28;20030;-88
2024/01/06 00:06:17;;;;;;;17.15;15.35;;;15.40;99.90;;;;;;4995566;28;20369;-90
2024/01/06 00:08:43;;;;;;;23.67;15.60;;;15.50;99.90;;;;;;4977976;28;20092;-92
2024/01/06 00:11:10;;;;;;;18.95;15.57;;;15.40;99.90;;;;;;4994344;28;20034;-92
2024/01/06 00:13:39;;;;;;;22.00;15.15;;;15.40;99.90;;;;;;4978856;28;20054;-93
2024/01/06 00:16:06;;;;;;;20.60;15.80;;;15.40;99.90;;;;;;4995576;28;20022;-91
2024/01/06 00:18:32;;;;;;;24.48;16.48;;;15.50;99.90;;;;;;4974726;28;20507;-90
2024/01/06 00:20:59;;;;;;;23.73;16.25;;;15.50;99.90;;;;;;4975258;28;20054;-93
2024/01/06 00:23:25;;;;;;;25.88;16.33;;;15.50;99.90;;;;;;4958804;28;20113;-84
2024/01/06 00:25:51;;;;;;;24.42;17.23;;;15.50;99.90;;;;;;4980648;28;20041;-88
2024/01/06 00:28:18;;;;;;;23.48;16.73;;;15.50;99.90;;;;;;4973319;28;20486;-91
2024/01/06 00:30:47;;;;;;;22.08;16.10;;;15.50;99.90;;;;;;4973821;28;20038;-91
2024/01/06 00:33:14;;;;;;;25.98;16.27;;;15.50;99.90;;;;;;4973897;28;20033;-90
2024/01/06 00:35:40;;;;;;;23.02;15.70;;;15.40;99.90;;;;;;4973520;28;20125;-86
2024/01/06 00:38:07;;;;;;;26.50;15.32;;;15.40;99.90;;;;;;4957539;28;20062;-88
2024/01/06 00:40:33;;;;;;;22.55;15.63;;;15.40;99.90;;;;;;4974252;28;20195;-90
2024/01/06 00:43:12;;;;;;;18.13;16.13;;;15.40;99.90;;;;;;4958866;28;20487;-92
2024/01/06 00:45:41;;;;;;;22.65;15.52;;;15.40;99.90;;;;;;4978134;28;20050;-86
2024/01/06 00:48:07;;;;;;;19.17;16.08;;;15.40;99.90;;;;;;4958655;28;20039;-87
2024/01/06 00:50:37;;;;;;;25.75;15.63;;;15.40;99.90;;;;;;4958070;28;20030;-85
2024/01/06 00:53:06;;;;;;;17.38;15.40;;;15.40;99.90;;;;;;4959477;28;20031;-92
2024/01/06 00:55:33;;;;;;;20.05;15.35;;;15.40;99.90;;;;;;4958772;28;20031;-88
2024/01/06 00:58:00;;;;;;;21.73;14.05;;;15.40;99.90;;;;;;4957382;28;20023;-88
2024/01/06 01:00:27;;;;;;;24.15;14.68;;;15.40;99.90;;;;;;4958147;28;20059;-91
2024/01/06 01:02:53;;;;;;;16.83;14.85;;;15.40;99.90;;;;;;4961849;28;20057;-88
2024/01/06 01:05:20;;;;;;;27.13;14.93;;;15.40;99.90;;;;;;4962905;28;20039;-88
2024/01/06 01:07:46;;;;;;;25.48;14.38;;;15.40;99.90;;;;;;4977443;28;20019;-90
2024/01/06 01:10:12;;;;;;;17.30;15.43;;;15.50;99.90;;;;;;4977783;28;20049;-88
2024/01/06 01:12:41;;;;;;;25.23;15.18;;;15.40;99.90;;;;;;4978398;28;20023;-87
2024/01/06 01:15:08;;;;;;;20.05;14.52;;;15.40;99.90;;;;;;4978014;28;20072;-91
2024/01/06 01:17:34;;;;;;;22.27;14.85;;;15.40;99.90;;;;;;4977831;28;20074;-89
2024/01/06 01:20:01;;;;;;;31.33;15.43;;;15.40;99.90;;;;;;4978197;28;20047;-91
2024/01/06 01:26:18;;;;;;;28.58;15.07;;;15.40;99.90;;;;;;4937275;29;20449;-82
2024/01/06 01:28:45;;;;;;;22.00;14.13;;;15.40;99.90;;;;;;4921236;29;20044;-84
2024/01/06 01:31:13;;;;;;;19.95;14.00;;;15.40;99.90;;;;;;4905260;29;20545;-84
2024/01/06 01:33:39;;;;;;;21.27;14.00;;;15.40;99.90;;;;;;4905686;29;20091;-81
2024/01/06 01:36:06;;;;;;;20.02;14.70;;;15.40;99.90;;;;;;4905548;29;20039;-86
2024/01/06 01:38:32;;;;;;;18.55;14.38;;;15.40;99.90;;;;;;4905254;29;20399;-84
2024/01/06 01:40:59;;;;;;;24.85;14.75;;;15.40;99.90;;;;;;4905844;29;20052;-85
2024/01/06 01:43:26;;;;;;;21.60;13.75;;;15.40;99.90;;;;;;4905977;29;20043;-86
2024/01/06 01:45:57;;;;;;;24.05;14.80;;;15.40;99.90;;;;;;4910629;29;20126;-84
2024/01/06 01:48:25;;;;;;;21.08;15.00;;;15.40;99.90;;;;;;4921177;29;20063;-87
2024/01/06 01:50:53;;;;;;;19.55;14.70;;;15.40;99.90;;;;;;4920900;29;20024;-85
2024/01/06 01:53:20;;;;;;;20.20;15.43;;;15.40;99.90;;;;;;4920956;29;20040;-84
2024/01/06 01:55:48;;;;;;;28.65;15.25;;;15.30;99.90;;;;;;4921125;29;20151;-86
2024/01/06 01:58:15;;;;;;;22.38;14.80;;;15.40;99.90;;;;;;4920400;29;20516;-86
2024/01/06 02:00:42;;;;;;;29.33;16.65;;;15.40;99.90;;;;;;4921130;29;20040;-86
2024/01/06 02:03:11;;;;;;;22.33;15.23;;;15.30;99.90;;;;;;4966404;28;20121;-86
2024/01/06 02:05:37;;;;;;;17.20;15.20;;;15.40;99.90;;;;;;4992209;28;20061;-86
2024/01/06 02:08:04;;;;;;;24.27;15.23;;;15.30;99.90;;;;;;4992338;28;20093;-85
2024/01/06 02:10:31;;;;;;;19.98;15.75;;;15.30;99.90;;;;;;4992039;28;20034;-86
2024/01/06 02:13:13;;;;;;;16.52;14.77;;;15.20;99.90;;;;;;4991551;28;20027;-86
2024/01/06 02:15:40;;;;;;;18.80;15.00;;;15.30;99.90;;;;;;4992016;28;20122;-86
2024/01/06 02:18:06;;;;;;;28.55;15.38;;;15.30;99.90;;;;;;4991917;28;20023;-85
2024/01/06 02:20:33;;;;;;;23.05;15.93;;;15.20;99.90;;;;;;4992071;28;20055;-86
2024/01/06 02:23:00;;;;;;;27.20;15.10;;;15.20;99.90;;;;;;4992001;28;20114;-87
2024/01/06 02:25:27;;;;;;;28.33;15.07;;;15.20;99.90;;;;;;4979862;28;20031;-86
2024/01/06 02:27:53;;;;;;;22.95;14.70;;;15.20;99.90;;;;;;4979050;28;20030;-86
2024/01/06 02:30:20;;;;;;;23.60;14.65;;;15.20;99.90;;;;;;4994679;28;20034;-86
2024/01/06 02:32:46;;;;;;;30.58;15.05;;;15.20;99.90;;;;;;4978863;28;20022;-85
2024/01/06 02:35:13;;;;;;;23.30;14.82;;;15.20;99.90;;;;;;4994929;28;20065;-86
2024/01/06 02:37:39;;;;;;;26.88;14.75;;;15.10;99.90;;;;;;4978766;28;20033;-86
2024/01/06 02:40:06;;;;;;;18.48;13.90;;;15.10;99.90;;;;;;4995044;28;20057;-86
2024/01/06 02:42:32;;;;;;;27.48;13.75;;;15.10;99.90;;;;;;4978548;28;20019;-85
2024/01/06 02:44:59;;;;;;;23.90;14.13;;;15.10;99.90;;;;;;4994601;28;20034;-87
2024/01/06 02:47:25;;;;;;;20.17;14.68;;;15.10;99.90;;;;;;4959089;28;20023;-86
2024/01/06 02:49:51;;;;;;;21.48;14.23;;;15.10;99.90;;;;;;4959140;28;20561;-87
2024/01/06 02:52:18;;;;;;;27.55;14.60;;;15.20;99.90;;;;;;4959116;28;20070;-87
2024/01/06 02:54:47;;;;;;;31.52;15.25;;;15.20;99.90;;;;;;4959162;28;20117;-86
2024/01/06 02:57:14;;;;;;;28.38;15.38;;;15.20;99.90;;;;;;4959123;28;20046;-85
2024/01/06 02:59:40;;;;;;;23.65;14.25;;;15.20;99.90;;;;;;4959403;28;20026;-86
2024/01/06 03:02:07;;;;;;;28.75;14.60;;;15.20;99.90;;;;;;4959152;28;20046;-87
2024/01/06 03:04:33;;;;;;;21.63;13.95;;;15.20;99.90;;;;;;4959079;28;20066;-86
2024/01/06 03:07:00;;;;;;;23.50;14.23;;;15.20;99.90;;;;;;4959007;28;20567;-86
2024/01/06 03:09:26;;;;;;;22.23;14.15;;;15.30;99.90;;;;;;4958713;28;20046;-86
2024/01/06 03:11:53;;;;;;;24.95;14.40;;;15.40;99.90;;;;;;4958755;28;20019;-86
2024/01/06 03:14:19;;;;;;;22.25;14.68;;;15.30;99.90;;;;;;4958771;28;20027;-85
2024/01/06 03:16:45;;;;;;;23.73;15.60;;;15.40;99.90;;;;;;4958840;28;20022;-85
2024/01/06 03:19:12;;;;;;;26.70;16.13;;;15.30;99.90;;;;;;4960579;28;20121;-86
2024/01/06 03:21:38;;;;;;;29.17;15.10;;;15.30;99.90;;;;;;4978058;28;20026;-86
2024/01/06 03:24:07;;;;;;;24.73;15.38;;;15.40;99.90;;;;;;4993730;28;20026;-85
2024/01/06 03:26:36;;;;;;;20.17;14.68;;;15.30;99.90;;;;;;4993812;28;20018;-86
2024/01/06 03:29:02;;;;;;;20.30;14.95;;;15.40;99.90;;;;;;4993914;28;20038;-86
2024/01/06 03:31:30;;;;;;;24.05;15.80;;;15.30;99.90;;;;;;4992987;28;20029;-87
2024/01/06 03:33:56;;;;;;;30.77;15.30;;;15.40;99.90;;;;;;4994164;28;20034;-87
2024/01/06 03:36:23;;;;;;;28.27;15.50;;;15.40;99.90;;;;;;4993932;28;20494;-86
2024/01/06 03:38:49;;;;;;;24.48;15.32;;;15.40;99.90;;;;;;4994024;28;20069;-85
2024/01/06 03:41:15;;;;;;;26.00;16.20;;;15.40;99.90;;;;;;4994038;28;20106;-86
2024/01/06 03:43:45;;;;;;;27.35;15.52;;;15.40;99.90;;;;;;4994115;28;20038;-86
2024/01/06 03:46:11;;;;;;;25.45;16.17;;;15.50;99.90;;;;;;4993714;28;20042;-86
2024/01/06 03:48:37;;;;;;;27.77;16.83;;;15.50;99.90;;;;;;4993709;28;20045;-86
2024/01/06 03:51:03;;;;;;;24.58;15.77;;;15.50;99.90;;;;;;4993941;28;20074;-86
2024/01/06 03:53:33;;;;;;;26.58;16.23;;;15.50;99.90;;;;;;4993742;28;20027;-86
2024/01/06 03:56:00;;;;;;;20.17;16.52;;;15.50;99.90;;;;;;4993852;28;20030;-87
2024/01/06 03:58:27;;;;;;;28.65;17.00;;;15.50;99.90;;;;;;4993573;28;20037;-86
2024/01/06 04:00:53;;;;;;;26.45;15.80;;;15.40;99.90;;;;;;4993436;28;20033;-84
2024/01/06 04:03:19;;;;;;;35.80;15.95;;;15.50;99.90;;;;;;4993381;28;20022;-85
2024/01/06 04:05:46;;;;;;;22.27;15.73;;;15.40;99.90;;;;;;4993732;28;20164;-86
2024/01/06 04:08:12;;;;;;;29.38;16.95;;;15.50;99.90;;;;;;4993405;28;20038;-86
2024/01/06 04:10:39;;;;;;;35.35;16.73;;;15.50;99.90;;;;;;4993387;28;20062;-86
2024/01/06 04:13:05;;;;;;;23.85;15.95;;;15.50;99.90;;;;;;4993677;28;20027;-86
2024/01/06 04:15:32;;;;;;;26.40;16.58;;;15.50;99.90;;;;;;4993449;28;20502;-86
2024/01/06 04:18:03;;;;;;;31.75;16.30;;;15.50;99.90;;;;;;4993544;28;20031;-86
2024/01/06 04:20:30;;;;;;;29.58;16.20;;;15.50;99.90;;;;;;4993214;28;20042;-85
2024/01/06 04:22:56;;;;;;;30.48;15.88;;;15.60;99.90;;;;;;4977189;28;20026;-86
2024/01/06 04:25:22;;;;;;;29.05;16.20;;;15.60;99.90;;;;;;4993137;28;20446;-85
2024/01/06 04:27:52;;;;;;;38.42;18.30;;;15.60;99.90;;;;;;4977121;28;20022;-85
2024/01/06 04:30:20;;;;;;;30.85;15.88;;;15.60;99.90;;;;;;4977544;28;20030;-86
2024/01/06 04:32:50;;;;;;;26.52;15.98;;;15.60;99.90;;;;;;4977335;28;20023;-86
2024/01/06 04:35:16;;;;;;;29.67;16.77;;;15.60;99.90;;;;;;4977249;28;20088;-85
2024/01/06 04:37:42;;;;;;;26.10;15.77;;;15.60;99.90;;;;;;4980704;28;20484;-85
2024/01/06 04:40:10;;;;;;;29.52;16.20;;;15.60;99.90;;;;;;4980696;28;20049;-86
2024/01/06 04:42:36;;;;;;;26.23;16.10;;;15.60;99.90;;;;;;4980891;28;20050;-86
2024/01/06 04:45:06;;;;;;;42.72;16.50;;;15.60;99.90;;;;;;4980803;28;20026;-86
2024/01/06 04:47:32;;;;;;;31.05;16.33;;;15.60;99.90;;;;;;4980709;28;20461;-85
2024/01/06 04:49:59;;;;;;;27.65;17.00;;;15.60;99.90;;;;;;4980831;28;20446;-86
2024/01/06 04:52:25;;;;;;;33.78;16.35;;;15.60;99.90;;;;;;4980862;28;20030;-85
2024/01/06 04:54:52;;;;;;;24.95;16.90;;;15.60;99.90;;;;;;4980769;28;20031;-85
2024/01/06 04:57:20;;;;;;;33.35;16.30;;;15.60;99.90;;;;;;4980597;28;20026;-85
2024/01/06 04:59:47;;;;;;;20.67;15.38;;;15.60;99.90;;;;;;4980501;28;20030;-85
2024/01/06 05:02:13;;;;;;;26.65;15.48;;;15.60;99.90;;;;;;4980525;28;20458;-86
2024/01/06 05:04:39;;;;;;;21.20;15.52;;;15.60;99.90;;;;;;4980622;28;20081;-85
2024/01/06 05:07:06;;;;;;;30.00;15.60;;;15.60;99.90;;;;;;4980253;28;20495;-85
2024/01/06 05:09:32;;;;;;;23.52;14.52;;;15.60;99.90;;;;;;4980531;28;20064;-85
2024/01/06 05:11:59;;;;;;;25.35;15.23;;;15.60;99.90;;;;;;4980376;28;20402;-86
2024/01/06 05:14:25;;;;;;;34.60;16.13;;;15.60;99.90;;;;;;4980314;28;20033;-85
2024/01/06 05:16:51;;;;;;;26.23;15.32;;;15.60;99.90;;;;;;4996321;28;20034;-86
2024/01/06 05:19:20;;;;;;;34.38;14.80;;;15.60;99.90;;;;;;4983135;28;20081;-86
2024/01/06 05:21:48;;;;;;;24.90;15.00;;;15.60;99.90;;;;;;4999585;28;20515;-85
2024/01/06 05:24:21;;;;;;;29.33;15.13;;;15.60;99.90;;;;;;4983237;28;20586;-85
2024/01/06 05:26:47;;;;;;;19.83;15.68;;;15.60;99.90;;;;;;4983296;28;20026;-86
2024/01/06 05:29:13;;;;;;;33.25;16.27;;;15.70;99.90;;;;;;4983275;28;20418;-85
2024/01/06 05:31:39;;;;;;;38.08;16.10;;;15.70;99.90;;;;;;4999491;28;20033;-86
2024/01/06 05:34:07;;;;;;;31.05;16.67;;;15.70;99.90;;;;;;4983027;28;20464;-85
2024/01/06 05:36:33;;;;;;;31.23;16.50;;;15.70;99.90;;;;;;4998707;28;20069;-86
2024/01/06 05:39:00;;;;;;;20.30;15.48;;;15.70;99.90;;;;;;4999021;28;20544;-85
2024/01/06 05:41:26;;;;;;;31.35;15.80;;;15.70;99.90;;;;;;4998969;28;20034;-86
2024/01/06 05:43:53;;;;;;;23.92;15.55;;;15.70;99.90;;;;;;4998987;28;20113;-86
2024/01/06 05:46:25;;;;;;;29.10;15.93;;;15.70;99.90;;;;;;4984350;28;20022;-86
2024/01/06 05:48:52;;;;;;;28.95;18.15;;;15.70;99.90;;;;;;4978593;28;20034;-86
2024/01/06 05:51:18;;;;;;;25.90;15.63;;;15.70;99.90;;;;;;4979643;28;20045;-85
2024/01/06 05:53:45;;;;;;;34.35;16.35;;;15.70;99.90;;;;;;4979464;28;20149;-86
2024/01/06 05:56:11;;;;;;;32.33;15.60;;;15.70;99.90;;;;;;4979555;28;20113;-85
2024/01/06 05:58:38;;;;;;;30.83;16.10;;;15.70;99.90;;;;;;4979491;28;20022;-85
2024/01/06 06:01:04;;;;;;;27.88;15.75;;;15.70;99.90;;;;;;4979324;28;20034;-86
2024/01/06 06:03:30;;;;;;;27.00;15.25;;;15.70;99.90;;;;;;4979320;28;20038;-85
2024/01/06 06:06:00;;;;;;;35.17;15.50;;;15.70;99.90;;;;;;4979354;28;20034;-85
2024/01/06 06:08:26;;;;;;;30.65;15.63;;;15.80;99.90;;;;;;4979238;28;20042;-85
2024/01/06 06:11:01;;;;;;;32.80;16.40;;;15.80;99.90;;;;;;4979044;28;20495;-87
2024/01/06 06:13:28;;;;;;;37.53;16.70;;;15.80;99.90;;;;;;4979216;28;20181;-88
2024/01/06 06:15:55;;;;;;;34.65;17.00;;;15.70;99.90;;;;;;4979257;28;20036;-88
2024/01/06 06:18:23;;;;;;;25.92;18.08;;;15.70;99.90;;;;;;4979091;28;20033;-87
2024/01/06 06:20:49;;;;;;;32.38;17.90;;;15.80;99.90;;;;;;4975488;28;20070;-88
2024/01/06 06:23:15;;;;;;;34.35;17.55;;;15.70;99.90;;;;;;4980242;28;20026;-87
2024/01/06 06:25:42;;;;;;;31.77;17.13;;;15.80;99.90;;;;;;4978903;28;20081;-89
2024/01/06 06:28:08;;;;;;;43.60;17.58;;;15.80;99.90;;;;;;4994830;28;20038;-88
2024/01/06 06:30:39;;;;;;;36.50;16.75;;;15.80;99.90;;;;;;4978828;28;20062;-87
2024/01/06 06:33:05;;;;;;;37.83;18.10;;;15.80;99.90;;;;;;4994752;28;20034;-87
2024/01/06 06:35:31;;;;;;;31.98;17.50;;;15.80;99.90;;;;;;4979050;28;20030;-87
2024/01/06 06:38:01;;;;;;;29.25;16.20;;;15.80;99.90;;;;;;4994857;28;20034;-87
2024/01/06 06:40:27;;;;;;;35.90;16.67;;;15.80;99.90;;;;;;4978707;28;20034;-87
2024/01/06 06:42:56;;;;;;;27.50;16.25;;;15.80;99.90;;;;;;4994862;28;20492;-88
2024/01/06 06:45:23;;;;;;;32.50;16.70;;;15.90;99.90;;;;;;4978907;28;20034;-88
2024/01/06 06:47:50;;;;;;;36.22;16.77;;;15.90;99.90;;;;;;4994593;28;20034;-88
2024/01/06 06:50:19;;;;;;;34.97;16.83;;;15.90;99.90;;;;;;4978465;28;20034;-88
2024/01/06 06:52:46;;;;;;;35.40;16.98;;;15.90;99.90;;;;;;4994474;28;20030;-87
2024/01/06 06:55:13;;;;;;;28.48;17.15;;;15.90;99.90;;;;;;4978468;28;20026;-87
2024/01/06 06:57:39;;;;;;;27.38;16.90;;;15.80;99.90;;;;;;4994486;28;20038;-87
2024/01/06 07:00:07;;;;;;;32.50;17.00;;;15.90;99.90;;;;;;4978113;28;20038;-87
2024/01/06 07:02:34;;;;;;;33.58;15.85;;;15.90;99.90;;;;;;4994601;28;20026;-86
2024/01/06 07:05:00;;;;;;;22.60;15.77;;;15.90;99.90;;;;;;4978495;28;20030;-87
2024/01/06 07:07:26;;;;;;;30.83;16.35;;;15.90;99.90;;;;;;4994406;28;20027;-87
2024/01/06 07:09:53;;;;;;;29.58;16.08;;;15.90;99.90;;;;;;4978207;28;20046;-88
2024/01/06 07:12:19;;;;;;;36.80;17.05;;;15.90;99.90;;;;;;4994303;28;20030;-86
2024/01/06 07:14:45;;;;;;;30.70;16.13;;;15.90;99.90;;;;;;4978032;28;20109;-88
2024/01/06 07:17:12;;;;;;;38.20;16.48;;;15.90;99.90;;;;;;4994418;28;20509;-87
2024/01/06 07:19:38;;;;;;;33.67;17.00;;;15.90;99.90;;;;;;4977849;28;20045;-87
2024/01/06 07:22:08;;;;;;;33.65;17.15;;;15.90;99.90;;;;;;4994065;28;20128;-88
2024/01/06 07:24:36;;;;;;;31.52;16.65;;;15.90;99.90;;;;;;4978082;28;20061;-87
2024/01/06 07:27:04;;;;;;;43.92;16.95;;;16.00;99.90;;;;;;4993966;28;20121;-88
2024/01/06 07:29:30;;;;;;;28.83;16.17;;;16.00;99.90;;;;;;4977790;28;20034;-87
2024/01/06 07:31:57;;;;;;;28.75;17.52;;;16.00;99.90;;;;;;4993827;28;20037;-87
2024/01/06 07:34:24;;;;;;;36.90;16.35;;;15.90;99.90;;;;;;4977799;28;20030;-87
2024/01/06 07:36:50;;;;;;;38.03;17.23;;;16.00;99.90;;;;;;4993926;28;20391;-87
2024/01/06 07:39:16;;;;;;;37.67;16.70;;;16.00;99.90;;;;;;4977763;28;20488;-86
2024/01/06 07:41:43;;;;;;;34.25;17.80;;;16.00;99.90;;;;;;4993979;28;20041;-86
2024/01/06 07:44:09;;;;;;;36.45;16.63;;;16.00;99.90;;;;;;4977807;28;20720;-86
2024/01/06 07:46:36;;;;;;;33.92;16.55;;;16.10;99.90;;;;;;4993746;28;20113;-87
2024/01/06 07:49:03;;;;;;;33.05;17.05;;;16.10;99.90;;;;;;4977385;28;20093;-87
2024/01/06 07:51:29;;;;;;;31.17;16.73;;;16.10;99.90;;;;;;4993578;28;20026;-88
2024/01/06 07:53:55;;;;;;;28.90;16.08;;;16.10;99.90;;;;;;4977505;28;20022;-87
2024/01/06 07:56:22;;;;;;;43.58;16.85;;;16.10;99.90;;;;;;4977326;28;20028;-87
2024/01/06 07:58:48;;;;;;;28.77;17.02;;;16.10;99.90;;;;;;4993556;28;20026;-86
2024/01/06 08:01:14;;;;;;;29.98;17.15;;;16.10;99.90;;;;;;4977502;28;20065;-86
2024/01/06 08:03:40;;;;;;;31.67;17.33;;;16.10;99.90;;;;;;4977460;28;20026;-86
2024/01/06 08:06:07;;;;;;;45.60;17.23;;;16.10;99.90;;;;;;4978375;28;20113;-85
2024/01/06 08:08:33;;;;;;;45.90;18.02;;;16.10;99.90;;;;;;4993465;28;20038;-86
2024/01/06 08:11:00;;;;;;;33.03;16.23;;;16.20;99.90;;;;;;4994439;28;20030;-86
2024/01/06 08:13:26;;;;;;;33.65;16.08;;;16.20;99.90;;;;;;4981278;28;20022;-86
2024/01/06 08:15:52;;;;;;;31.88;16.48;;;16.20;99.90;;;;;;4997064;28;20028;-86
2024/01/06 08:18:20;;;;;;;31.02;16.35;;;16.30;99.90;;;;;;4981102;28;20035;-86
2024/01/06 08:20:47;;;;;;;32.75;16.80;;;16.30;99.90;;;;;;4997304;28;20546;-88
2024/01/06 08:23:13;;;;;;;37.35;16.13;;;16.40;99.90;;;;;;4981348;28;20023;-87
2024/01/06 08:25:39;;;;;;;28.80;16.25;;;16.50;99.90;;;;;;4997476;28;20034;-90
2024/01/06 08:28:05;;;;;;;39.15;16.13;;;16.50;99.90;;;;;;4981127;28;20027;-87
2024/01/06 08:30:32;;;;;;;31.25;15.27;;;16.60;99.90;;;;;;4997381;28;20043;-89
2024/01/06 08:32:59;;;;;;;30.35;15.80;;;16.60;99.90;;;;;;4981098;28;20096;-90
2024/01/06 08:35:27;;;;;;;32.30;16.65;;;16.50;99.90;;;;;;4998221;28;20169;-84
2024/01/06 08:37:53;;;;;;;37.92;17.30;;;16.50;99.90;;;;;;4981652;28;20101;-89
2024/01/06 08:40:21;;;;;;;34.60;16.73;;;16.50;99.90;;;;;;4997417;28;20030;-88
2024/01/06 08:42:48;;;;;;;38.20;16.15;;;16.50;99.90;;;;;;4980929;28;20025;-87
2024/01/06 08:45:15;;;;;;;35.95;16.30;;;16.60;99.90;;;;;;4997244;28;20034;-89
2024/01/06 08:47:41;;;;;;;29.13;15.93;;;16.60;99.90;;;;;;4980973;28;20391;-92
2024/01/06 08:50:08;;;;;;;31.92;15.95;;;16.70;99.90;;;;;;4997153;28;20100;-91
2024/01/06 08:52:34;;;;;;;40.33;17.23;;;16.60;99.90;;;;;;4981517;28;20050;-91
2024/01/06 08:55:07;;;;;;;38.03;16.58;;;16.70;99.90;;;;;;4998183;28;20026;-94
2024/01/06 08:57:39;;;;;;;34.35;15.43;;;16.80;99.90;;;;;;4999605;28;20034;-90
2024/01/06 09:00:06;;;;;;;33.00;16.30;;;16.90;99.90;;;;;;4977607;28;20033;-92
2024/01/06 09:02:32;;;;;;;39.28;16.10;;;17.00;99.90;;;;;;4961025;28;20081;-84
2024/01/06 09:05:02;;;;;;;38.15;15.75;;;17.10;99.90;;;;;;4960302;28;20066;-84
2024/01/06 09:07:28;;;;;;;38.08;15.45;;;17.30;99.90;;;;;;4976394;28;20062;-85
2024/01/06 09:09:55;;;;;;;33.75;17.05;;;17.40;99.90;;;;;;4960388;28;20035;-85
2024/01/06 09:12:21;;;;;;;36.33;16.10;;;17.30;99.90;;;;;;4960576;28;20034;-85
2024/01/06 09:14:48;;;;;;;38.92;17.48;;;17.10;99.90;;;;;;4959865;28;20027;-83
2024/01/06 09:17:14;;;;;;;32.20;16.85;;;17.10;99.90;;;;;;4960177;28;20439;-84
2024/01/06 09:19:41;;;;;;;31.25;16.92;;;17.00;99.90;;;;;;4982833;28;20507;-83
2024/01/06 09:22:08;;;;;;;36.40;16.73;;;17.10;99.90;;;;;;4962264;28;20058;-86
2024/01/06 09:24:34;;;;;;;34.35;17.13;;;17.00;99.90;;;;;;4963186;28;20030;-86
2024/01/06 09:27:00;;;;;;;34.20;16.50;;;17.00;99.90;;;;;;4990256;28;20030;-84
2024/01/06 09:29:28;;;;;;;29.85;16.25;;;17.00;99.90;;;;;;4982820;28;20088;-84
2024/01/06 09:31:55;;;;;;;43.92;17.73;;;17.00;99.90;;;;;;4999117;28;20145;-85
2024/01/06 09:34:21;;;;;;;33.00;16.20;;;17.10;99.90;;;;;;4982839;28;20033;-84
2024/01/06 09:36:47;;;;;;;40.17;17.70;;;17.00;99.90;;;;;;4998802;28;20033;-85
2024/01/06 09:39:13;;;;;;;45.75;16.52;;;17.00;99.90;;;;;;4982863;28;20026;-85
2024/01/06 09:41:41;;;;;;;36.45;16.52;;;16.90;99.90;;;;;;4982896;28;20032;-86
2024/01/06 09:44:09;;;;;;;33.05;16.75;;;17.00;99.90;;;;;;4982707;28;20026;-85
2024/01/06 09:46:37;;;;;;;39.95;16.42;;;16.90;99.90;;;;;;4982414;28;20044;-83
2024/01/06 09:49:05;;;;;;;27.58;16.23;;;16.90;99.90;;;;;;5016248;28;20030;-85
2024/01/06 09:51:35;;;;;;;34.97;16.23;;;16.90;99.90;;;;;;4999032;28;20055;-84
2024/01/06 09:54:07;;;;;;;36.10;15.80;;;17.00;99.90;;;;;;4998679;28;20030;-85
2024/01/06 09:56:35;;;;;;;30.07;16.43;;;16.90;99.90;;;;;;4999154;28;20030;-85
2024/01/06 09:59:02;;;;;;;34.03;16.10;;;17.00;99.90;;;;;;4998554;28;20440;-85
2024/01/06 10:01:28;;;;;;;37.67;16.23;;;16.90;99.90;;;;;;4998530;28;20030;-86
2024/01/06 10:03:55;;;;;;;35.90;15.40;;;16.90;99.90;;;;;;4982470;28;20029;-85
2024/01/06 10:06:23;;;;;;;42.42;16.42;;;16.90;99.90;;;;;;4998604;28;20044;-85
2024/01/06 10:08:51;;;;;;;38.85;15.98;;;16.90;99.90;;;;;;4982237;28;20049;-86
2024/01/06 10:11:24;;;;;;;40.38;17.48;;;16.90;99.90;;;;;;4998306;28;20033;-83
2024/01/06 10:13:53;;;;;;;36.47;16.05;;;17.00;99.90;;;;;;4982387;28;20053;-84
2024/01/06 10:16:23;;;;;;;27.52;15.57;;;16.90;99.90;;;;;;5015628;28;20025;-83
2024/01/06 10:18:50;;;;;;;37.63;17.48;;;16.90;99.90;;;;;;4981901;28;20034;-84
2024/01/06 10:21:17;;;;;;;39.28;16.80;;;16.90;99.90;;;;;;4995455;28;20046;-86
2024/01/06 10:23:45;;;;;;;36.75;16.85;;;16.90;99.90;;;;;;4978386;28;20042;-86
2024/01/06 10:26:15;;;;;;;35.80;15.80;;;16.80;99.90;;;;;;4992018;28;20030;-82
2024/01/06 10:28:42;;;;;;;33.97;16.10;;;16.70;99.90;;;;;;4994633;28;20088;-87
2024/01/06 10:31:13;;;;;;;40.65;16.40;;;16.80;99.90;;;;;;4993857;28;20023;-81
2024/01/06 10:33:40;;;;;;;29.08;14.80;;;16.90;99.90;;;;;;4993033;28;20058;-83
2024/01/06 10:36:08;;;;;;;32.72;16.30;;;16.80;99.90;;;;;;4992739;28;20026;-82
2024/01/06 10:38:35;;;;;;;32.72;15.68;;;16.90;99.90;;;;;;4974078;28;20049;-82
2024/01/06 10:41:12;;;;;;;35.60;16.10;;;16.90;99.90;;;;;;4958097;28;20113;-81
2024/01/06 10:43:43;;;;;;;44.58;17.17;;;16.80;99.90;;;;;;4958005;28;20030;-81
2024/01/06 10:46:11;;;;;;;47.08;18.33;;;16.80;99.90;;;;;;4977711;28;20073;-81
2024/01/06 10:48:42;;;;;;;31.48;15.48;;;16.80;99.90;;;;;;4977250;28;20027;-81
2024/01/06 10:51:10;;;;;;;52.92;16.70;;;16.90;99.90;;;;;;4993510;28;20125;-81
2024/01/06 10:53:38;;;;;;;40.00;16.42;;;16.80;99.90;;;;;;4994675;28;20497;-85
2024/01/06 10:56:07;;;;;;;38.78;16.33;;;16.80;99.90;;;;;;4991493;28;20085;-84
2024/01/06 10:58:42;;;;;;;37.22;15.93;;;16.70;99.90;;;;;;4974147;28;20022;-81
2024/01/06 11:01:09;;;;;;;38.67;16.10;;;16.70;99.90;;;;;;4957907;28;20038;-81
2024/01/06 11:03:40;;;;;;;47.90;16.40;;;16.80;99.90;;;;;;4973699;28;20492;-81
2024/01/06 11:06:10;;;;;;;38.28;18.73;;;16.80;99.90;;;;;;4976591;28;20074;-81
2024/01/06 11:08:49;;;;;;;41.47;16.45;;;16.80;99.90;;;;;;4993044;28;20034;-81
2024/01/06 11:11:21;;;;;;;40.10;17.17;;;16.80;99.90;;;;;;4976720;28;20029;-81
2024/01/06 11:14:13;;;;;;;45.38;17.30;;;16.80;99.90;;;;;;4994113;28;20104;-81
2024/01/06 11:16:39;;;;;;;42.78;18.23;;;16.80;99.90;;;;;;4986872;28;20484;-81
2024/01/06 11:19:37;;;;;;;39.22;15.27;;;16.90;99.90;;;;;;4973539;28;20077;-82
2024/01/06 11:22:28;;;;;;;43.83;16.60;;;16.80;99.90;;;;;;4993013;28;20034;-81
2024/01/06 11:24:57;;;;;;;51.72;16.52;;;16.90;99.90;;;;;;4993059;28;20034;-81
2024/01/06 11:27:28;;;;;;;40.50;17.65;;;16.90;99.90;;;;;;4992769;28;20033;-81
2024/01/06 11:29:56;;;;;;;45.22;17.38;;;16.80;99.90;;;;;;4992765;28;20380;-81
2024/01/06 11:32:40;;;;;;;37.72;16.70;;;16.90;99.90;;;;;;4976564;28;20030;-81
2024/01/06 11:35:14;;;;;;;37.80;16.05;;;16.90;99.90;;;;;;4976396;28;20038;-80
2024/01/06 11:37:40;;;;;;;51.27;16.47;;;16.80;99.90;;;;;;4976599;28;20034;-80
2024/01/06 11:40:34;;;;;;;37.10;16.15;;;16.80;99.90;;;;;;4992486;28;20297;-81
2024/01/06 11:43:09;;;;;;;33.78;15.77;;;16.70;99.90;;;;;;4967410;28;20404;-81
2024/01/06 11:45:37;;;;;;;38.63;16.85;;;16.70;99.90;;;;;;4992165;28;20027;-82
2024/01/06 11:48:06;;;;;;;35.13;16.05;;;16.70;99.90;;;;;;4992681;28;20511;-81
2024/01/06 11:50:38;;;;;;;37.55;16.75;;;16.60;99.90;;;;;;4976571;28;20054;-80
2024/01/06 11:53:06;;;;;;;36.13;16.23;;;16.70;99.90;;;;;;4992439;28;20085;-81
2024/01/06 11:55:32;;;;;;;35.42;14.75;;;16.70;99.90;;;;;;4992574;28;20491;-82
2024/01/06 11:58:02;;;;;;;42.67;16.75;;;16.80;99.90;;;;;;4976305;28;20037;-82
2024/01/06 12:00:30;;;;;;;41.50;15.57;;;16.90;99.90;;;;;;4992477;28;20506;-81
2024/01/06 12:03:00;;;;;;;34.17;16.63;;;16.90;99.90;;;;;;4976132;28;20117;-82
2024/01/06 12:05:28;;;;;;;47.08;16.33;;;16.90;99.90;;;;;;4993551;28;20022;-81
2024/01/06 12:07:58;;;;;;;47.33;16.17;;;16.90;99.90;;;;;;4992085;28;20069;-80
2024/01/06 12:10:27;;;;;;;42.33;15.48;;;16.80;99.90;;;;;;4993701;28;20065;-82
2024/01/06 12:13:02;;;;;;;44.55;17.45;;;16.80;99.90;;;;;;4976451;28;20411;-82
2024/01/06 12:15:30;;;;;;;38.50;15.73;;;16.80;99.90;;;;;;4992920;28;20037;-84
2024/01/06 12:17:56;;;;;;;38.70;16.23;;;16.90;99.90;;;;;;4976880;28;20022;-86
2024/01/06 12:20:23;;;;;;;30.48;16.30;;;16.90;99.90;;;;;;4989645;28;20499;-82
2024/01/06 12:22:54;;;;;;;50.35;18.00;;;16.90;99.90;;;;;;4976193;28;20026;-83
2024/01/06 12:25:27;;;;;;;33.75;16.15;;;16.90;99.90;;;;;;4992057;28;20133;-80
2024/01/06 12:27:55;;;;;;;41.58;17.55;;;16.90;99.90;;;;;;4982308;28;20035;-82
2024/01/06 12:30:24;;;;;;;36.20;16.83;;;16.80;99.90;;;;;;4972795;28;20035;-83
2024/01/06 12:32:51;;;;;;;42.22;16.73;;;16.80;99.90;;;;;;4956094;28;20471;-82
2024/01/06 12:35:19;;;;;;;38.47;16.40;;;16.80;99.90;;;;;;4972648;28;20027;-83